sensor_id;sensor_type;location;lat;lon;timestamp;P1;durP1;ratioP1;P2;durP2;ratioP2
5521;SDS011;2783;48.730;8.006;2023-06-22T00:01:55;7.80;;;4.85;;
5521;SDS011;2783;48.730;8.006;2023-06-22T00:04:20;9.90;;;4.95;;
5521;SDS011;2783;48.730;8.006;2023-06-22T00:06:45;7.88;;;4.65;;
5521;SDS011;2783;48.730;8.006;2023-06-22T00:09:11;9.90;;;5.57;;
5521;SDS011;2783;48.730;8.006;2023-06-22T00:11:36;8.57;;;4.15;;
5521;SDS011;2783;48.730;8.006;2023-06-22T00:14:03;8.48;;;4.15;;
5521;SDS011;2783;48.730;8.006;2023-06-22T00:16:29;7.93;;;4.60;;
5521;SDS011;2783;48.730;8.006;2023-06-22T00:18:56;8.25;;;4.72;;
5521;SDS011;2783;48.730;8.006;2023-06-22T00:21:25;7.95;;;4.50;;
5521;SDS011;2783;48.730;8.006;2023-06-22T00:23:51;8.43;;;4.30;;
5521;SDS011;2783;48.730;8.006;2023-06-22T00:26:17;9.55;;;5.00;;
5521;SDS011;2783;48.730;8.006;2023-06-22T00:28:42;8.95;;;5.28;;
5521;SDS011;2783;48.730;8.006;2023-06-22T00:31:07;10.45;;;4.78;;
5521;SDS011;2783;48.730;8.006;2023-06-22T00:33:33;8.90;;;4.50;;
5521;SDS011;2783;48.730;8.006;2023-06-22T00:35:58;9.02;;;4.63;;
5521;SDS011;2783;48.730;8.006;2023-06-22T00:38:27;9.57;;;4.65;;
5521;SDS011;2783;48.730;8.006;2023-06-22T00:40:52;9.73;;;4.70;;
5521;SDS011;2783;48.730;8.006;2023-06-22T00:43:17;7.68;;;4.57;;
5521;SDS011;2783;48.730;8.006;2023-06-22T00:45:43;7.00;;;4.80;;
5521;SDS011;2783;48.730;8.006;2023-06-22T00:48:08;6.88;;;4.30;;
5521;SDS011;2783;48.730;8.006;2023-06-22T00:50:34;10.93;;;4.93;;
5521;SDS011;2783;48.730;8.006;2023-06-22T00:53:02;8.30;;;4.50;;
5521;SDS011;2783;48.730;8.006;2023-06-22T00:55:33;12.57;;;6.03;;
5521;SDS011;2783;48.730;8.006;2023-06-22T00:58:03;10.05;;;4.53;;
5521;SDS011;2783;48.730;8.006;2023-06-22T01:00:39;11.77;;;4.50;;
5521;SDS011;2783;48.730;8.006;2023-06-22T01:03:06;12.95;;;5.10;;
5521;SDS011;2783;48.730;8.006;2023-06-22T01:05:35;9.45;;;4.90;;
5521;SDS011;2783;48.730;8.006;2023-06-22T01:13:50;9.32;;;5.10;;
5521;SDS011;2783;48.730;8.006;2023-06-22T01:16:34;12.90;;;5.40;;
5521;SDS011;2783;48.730;8.006;2023-06-22T01:19:06;9.48;;;5.35;;
5521;SDS011;2783;48.730;8.006;2023-06-22T01:21:45;10.57;;;5.50;;
5521;SDS011;2783;48.730;8.006;2023-06-22T01:24:22;8.73;;;5.53;;
5521;SDS011;2783;48.730;8.006;2023-06-22T01:30:02;11.35;;;5.60;;
5521;SDS011;2783;48.730;8.006;2023-06-22T01:32:30;9.60;;;5.60;;
5521;SDS011;2783;48.730;8.006;2023-06-22T01:34:58;10.15;;;5.32;;
5521;SDS011;2783;48.730;8.006;2023-06-22T01:37:29;11.65;;;5.53;;
5521;SDS011;2783;48.730;8.006;2023-06-22T01:39:57;10.63;;;5.38;;
5521;SDS011;2783;48.730;8.006;2023-06-22T01:42:26;13.20;;;6.13;;
5521;SDS011;2783;48.730;8.006;2023-06-22T01:44:52;9.10;;;5.45;;
5521;SDS011;2783;48.730;8.006;2023-06-22T01:47:20;7.82;;;4.82;;
5521;SDS011;2783;48.730;8.006;2023-06-22T01:49:45;9.60;;;6.10;;
5521;SDS011;2783;48.730;8.006;2023-06-22T01:52:11;10.63;;;5.63;;
5521;SDS011;2783;48.730;8.006;2023-06-22T01:54:38;9.57;;;5.88;;
5521;SDS011;2783;48.730;8.006;2023-06-22T01:57:05;9.05;;;5.32;;
5521;SDS011;2783;48.730;8.006;2023-06-22T01:59:38;11.05;;;5.40;;
5521;SDS011;2783;48.730;8.006;2023-06-22T02:02:13;11.20;;;5.80;;
5521;SDS011;2783;48.730;8.006;2023-06-22T02:04:51;10.73;;;5.53;;
5521;SDS011;2783;48.730;8.006;2023-06-22T02:07:20;9.00;;;5.68;;
5521;SDS011;2783;48.730;8.006;2023-06-22T02:09:50;11.20;;;5.63;;
5521;SDS011;2783;48.730;8.006;2023-06-22T02:12:18;9.32;;;5.68;;
5521;SDS011;2783;48.730;8.006;2023-06-22T02:14:47;11.68;;;4.90;;
5521;SDS011;2783;48.730;8.006;2023-06-22T02:17:13;11.15;;;6.28;;
5521;SDS011;2783;48.730;8.006;2023-06-22T02:19:42;13.32;;;6.30;;
5521;SDS011;2783;48.730;8.006;2023-06-22T02:22:07;9.55;;;5.50;;
5521;SDS011;2783;48.730;8.006;2023-06-22T02:24:33;9.68;;;4.53;;
5521;SDS011;2783;48.730;8.006;2023-06-22T02:26:59;10.48;;;5.55;;
5521;SDS011;2783;48.730;8.006;2023-06-22T02:29:25;10.35;;;6.05;;
5521;SDS011;2783;48.730;8.006;2023-06-22T02:31:52;10.98;;;6.15;;
5521;SDS011;2783;48.730;8.006;2023-06-22T02:34:18;10.98;;;6.72;;
5521;SDS011;2783;48.730;8.006;2023-06-22T02:36:49;10.45;;;4.93;;
5521;SDS011;2783;48.730;8.006;2023-06-22T02:39:19;11.50;;;6.45;;
5521;SDS011;2783;48.730;8.006;2023-06-22T02:41:44;9.65;;;5.68;;
5521;SDS011;2783;48.730;8.006;2023-06-22T02:44:10;11.35;;;6.00;;
5521;SDS011;2783;48.730;8.006;2023-06-22T02:46:35;9.40;;;5.95;;
5521;SDS011;2783;48.730;8.006;2023-06-22T02:49:01;14.25;;;6.30;;
5521;SDS011;2783;48.730;8.006;2023-06-22T02:51:26;11.88;;;6.07;;
5521;SDS011;2783;48.730;8.006;2023-06-22T02:53:52;9.75;;;5.90;;
5521;SDS011;2783;48.730;8.006;2023-06-22T02:56:22;11.43;;;5.60;;
5521;SDS011;2783;48.730;8.006;2023-06-22T02:58:50;10.07;;;5.90;;
5521;SDS011;2783;48.730;8.006;2023-06-22T03:01:15;12.23;;;5.68;;
5521;SDS011;2783;48.730;8.006;2023-06-22T03:03:41;11.70;;;5.43;;
5521;SDS011;2783;48.730;8.006;2023-06-22T03:06:06;12.60;;;6.47;;
5521;SDS011;2783;48.730;8.006;2023-06-22T03:08:31;9.90;;;6.13;;
5521;SDS011;2783;48.730;8.006;2023-06-22T03:10:57;9.70;;;5.47;;
5521;SDS011;2783;48.730;8.006;2023-06-22T03:13:22;9.27;;;5.40;;
5521;SDS011;2783;48.730;8.006;2023-06-22T03:15:48;10.95;;;6.00;;
5521;SDS011;2783;48.730;8.006;2023-06-22T03:18:13;8.82;;;5.47;;
5521;SDS011;2783;48.730;8.006;2023-06-22T03:20:40;9.05;;;5.38;;
5521;SDS011;2783;48.730;8.006;2023-06-22T03:23:06;11.82;;;5.63;;
5521;SDS011;2783;48.730;8.006;2023-06-22T03:25:31;9.77;;;6.22;;
5521;SDS011;2783;48.730;8.006;2023-06-22T03:27:58;11.82;;;5.93;;
5521;SDS011;2783;48.730;8.006;2023-06-22T03:30:26;10.43;;;5.20;;
5521;SDS011;2783;48.730;8.006;2023-06-22T03:32:51;11.98;;;5.70;;
5521;SDS011;2783;48.730;8.006;2023-06-22T03:35:17;10.20;;;6.35;;
5521;SDS011;2783;48.730;8.006;2023-06-22T03:37:42;9.23;;;5.68;;
5521;SDS011;2783;48.730;8.006;2023-06-22T03:40:08;10.70;;;5.63;;
5521;SDS011;2783;48.730;8.006;2023-06-22T03:42:34;13.15;;;5.65;;
5521;SDS011;2783;48.730;8.006;2023-06-22T03:45:02;8.52;;;4.75;;
5521;SDS011;2783;48.730;8.006;2023-06-22T03:47:28;12.65;;;5.45;;
5521;SDS011;2783;48.730;8.006;2023-06-22T03:49:54;9.57;;;5.25;;
5521;SDS011;2783;48.730;8.006;2023-06-22T03:52:20;10.05;;;5.38;;
5521;SDS011;2783;48.730;8.006;2023-06-22T03:54:46;13.85;;;5.85;;
5521;SDS011;2783;48.730;8.006;2023-06-22T03:57:12;11.07;;;5.55;;
5521;SDS011;2783;48.730;8.006;2023-06-22T03:59:37;10.68;;;6.03;;
5521;SDS011;2783;48.730;8.006;2023-06-22T04:02:03;9.30;;;5.22;;
5521;SDS011;2783;48.730;8.006;2023-06-22T04:04:28;9.05;;;5.85;;
5521;SDS011;2783;48.730;8.006;2023-06-22T04:06:54;16.20;;;6.50;;
5521;SDS011;2783;48.730;8.006;2023-06-22T04:09:19;10.48;;;5.70;;
5521;SDS011;2783;48.730;8.006;2023-06-22T04:11:46;15.90;;;6.20;;
5521;SDS011;2783;48.730;8.006;2023-06-22T04:14:12;11.75;;;5.88;;
5521;SDS011;2783;48.730;8.006;2023-06-22T04:16:37;11.10;;;5.28;;
5521;SDS011;2783;48.730;8.006;2023-06-22T04:19:02;9.30;;;5.70;;
5521;SDS011;2783;48.730;8.006;2023-06-22T04:21:28;11.88;;;5.45;;
5521;SDS011;2783;48.730;8.006;2023-06-22T04:23:53;9.43;;;5.18;;
5521;SDS011;2783;48.730;8.006;2023-06-22T04:26:19;11.02;;;5.85;;
5521;SDS011;2783;48.730;8.006;2023-06-22T04:28:46;10.00;;;5.20;;
5521;SDS011;2783;48.730;8.006;2023-06-22T04:31:16;11.30;;;5.18;;
5521;SDS011;2783;48.730;8.006;2023-06-22T04:33:42;10.15;;;5.75;;
5521;SDS011;2783;48.730;8.006;2023-06-22T04:36:07;9.82;;;5.32;;
5521;SDS011;2783;48.730;8.006;2023-06-22T04:38:33;10.32;;;5.43;;
5521;SDS011;2783;48.730;8.006;2023-06-22T04:40:58;9.43;;;5.72;;
5521;SDS011;2783;48.730;8.006;2023-06-22T04:43:26;9.10;;;5.20;;
5521;SDS011;2783;48.730;8.006;2023-06-22T04:45:55;10.90;;;5.20;;
5521;SDS011;2783;48.730;8.006;2023-06-22T04:48:21;10.77;;;5.50;;
5521;SDS011;2783;48.730;8.006;2023-06-22T04:50:46;10.68;;;5.30;;
5521;SDS011;2783;48.730;8.006;2023-06-22T04:53:11;9.48;;;5.28;;
5521;SDS011;2783;48.730;8.006;2023-06-22T04:55:37;12.45;;;5.65;;
5521;SDS011;2783;48.730;8.006;2023-06-22T04:58:06;9.18;;;4.93;;
5521;SDS011;2783;48.730;8.006;2023-06-22T05:00:32;12.65;;;5.72;;
5521;SDS011;2783;48.730;8.006;2023-06-22T05:03:01;11.85;;;5.28;;
5521;SDS011;2783;48.730;8.006;2023-06-22T05:05:28;10.27;;;5.10;;
5521;SDS011;2783;48.730;8.006;2023-06-22T05:07:56;11.50;;;6.07;;
5521;SDS011;2783;48.730;8.006;2023-06-22T05:10:24;10.88;;;5.32;;
5521;SDS011;2783;48.730;8.006;2023-06-22T05:12:51;8.75;;;4.75;;
5521;SDS011;2783;48.730;8.006;2023-06-22T05:15:16;10.93;;;5.75;;
5521;SDS011;2783;48.730;8.006;2023-06-22T05:17:44;9.13;;;4.88;;
5521;SDS011;2783;48.730;8.006;2023-06-22T05:20:10;11.00;;;5.47;;
5521;SDS011;2783;48.730;8.006;2023-06-22T05:22:37;8.02;;;4.82;;
5521;SDS011;2783;48.730;8.006;2023-06-22T05:25:03;9.95;;;5.40;;
5521;SDS011;2783;48.730;8.006;2023-06-22T05:27:31;12.23;;;5.00;;
5521;SDS011;2783;48.730;8.006;2023-06-22T05:29:56;11.27;;;5.13;;
5521;SDS011;2783;48.730;8.006;2023-06-22T05:32:21;10.23;;;6.10;;
5521;SDS011;2783;48.730;8.006;2023-06-22T05:34:47;10.95;;;5.38;;
5521;SDS011;2783;48.730;8.006;2023-06-22T05:37:12;9.57;;;5.28;;
5521;SDS011;2783;48.730;8.006;2023-06-22T05:39:38;11.07;;;5.32;;
5521;SDS011;2783;48.730;8.006;2023-06-22T05:42:06;8.52;;;4.82;;
5521;SDS011;2783;48.730;8.006;2023-06-22T05:44:32;10.95;;;5.05;;
5521;SDS011;2783;48.730;8.006;2023-06-22T05:46:58;8.48;;;4.70;;
5521;SDS011;2783;48.730;8.006;2023-06-22T05:49:24;9.02;;;5.15;;
5521;SDS011;2783;48.730;8.006;2023-06-22T05:51:54;9.82;;;5.47;;
5521;SDS011;2783;48.730;8.006;2023-06-22T05:54:20;8.75;;;4.75;;
5521;SDS011;2783;48.730;8.006;2023-06-22T05:56:45;9.23;;;4.85;;
5521;SDS011;2783;48.730;8.006;2023-06-22T05:59:11;13.32;;;4.60;;
5521;SDS011;2783;48.730;8.006;2023-06-22T06:01:37;8.77;;;4.97;;
5521;SDS011;2783;48.730;8.006;2023-06-22T06:04:02;10.23;;;5.45;;
5521;SDS011;2783;48.730;8.006;2023-06-22T06:06:34;8.23;;;4.63;;
5521;SDS011;2783;48.730;8.006;2023-06-22T06:09:04;13.48;;;5.18;;
5521;SDS011;2783;48.730;8.006;2023-06-22T06:11:30;9.73;;;5.28;;
5521;SDS011;2783;48.730;8.006;2023-06-22T06:13:56;7.53;;;5.00;;
5521;SDS011;2783;48.730;8.006;2023-06-22T06:16:21;12.55;;;4.85;;
5521;SDS011;2783;48.730;8.006;2023-06-22T06:18:47;8.05;;;5.13;;
5521;SDS011;2783;48.730;8.006;2023-06-22T06:21:14;9.43;;;5.20;;
5521;SDS011;2783;48.730;8.006;2023-06-22T06:23:40;9.25;;;4.38;;
5521;SDS011;2783;48.730;8.006;2023-06-22T06:26:05;8.57;;;4.78;;
5521;SDS011;2783;48.730;8.006;2023-06-22T06:28:32;9.65;;;4.35;;
5521;SDS011;2783;48.730;8.006;2023-06-22T06:30:58;8.68;;;4.93;;
5521;SDS011;2783;48.730;8.006;2023-06-22T06:33:23;8.07;;;4.40;;
5521;SDS011;2783;48.730;8.006;2023-06-22T06:35:52;10.68;;;5.60;;
5521;SDS011;2783;48.730;8.006;2023-06-22T06:38:18;9.38;;;4.72;;
5521;SDS011;2783;48.730;8.006;2023-06-22T06:40:43;11.80;;;4.35;;
5521;SDS011;2783;48.730;8.006;2023-06-22T06:43:10;8.23;;;3.60;;
5521;SDS011;2783;48.730;8.006;2023-06-22T06:45:35;9.48;;;4.38;;
5521;SDS011;2783;48.730;8.006;2023-06-22T06:48:01;8.25;;;4.30;;
5521;SDS011;2783;48.730;8.006;2023-06-22T06:50:26;8.35;;;4.10;;
5521;SDS011;2783;48.730;8.006;2023-06-22T06:52:52;7.30;;;4.22;;
5521;SDS011;2783;48.730;8.006;2023-06-22T06:55:18;11.82;;;4.55;;
5521;SDS011;2783;48.730;8.006;2023-06-22T06:57:44;8.38;;;4.32;;
5521;SDS011;2783;48.730;8.006;2023-06-22T07:00:13;9.82;;;4.07;;
5521;SDS011;2783;48.730;8.006;2023-06-22T07:02:40;7.70;;;4.63;;
5521;SDS011;2783;48.730;8.006;2023-06-22T07:05:07;8.32;;;4.57;;
5521;SDS011;2783;48.730;8.006;2023-06-22T07:07:33;7.57;;;3.97;;
5521;SDS011;2783;48.730;8.006;2023-06-22T07:09:59;8.13;;;4.60;;
5521;SDS011;2783;48.730;8.006;2023-06-22T07:12:25;7.93;;;3.95;;
5521;SDS011;2783;48.730;8.006;2023-06-22T07:14:51;9.13;;;4.50;;
5521;SDS011;2783;48.730;8.006;2023-06-22T07:17:17;8.27;;;4.15;;
5521;SDS011;2783;48.730;8.006;2023-06-22T07:19:42;6.47;;;3.60;;
5521;SDS011;2783;48.730;8.006;2023-06-22T07:22:08;7.40;;;4.20;;
5521;SDS011;2783;48.730;8.006;2023-06-22T07:24:33;8.73;;;4.22;;
5521;SDS011;2783;48.730;8.006;2023-06-22T07:26:59;8.27;;;4.50;;
5521;SDS011;2783;48.730;8.006;2023-06-22T07:29:24;8.93;;;4.45;;
5521;SDS011;2783;48.730;8.006;2023-06-22T07:31:51;6.93;;;3.97;;
5521;SDS011;2783;48.730;8.006;2023-06-22T07:34:17;7.40;;;3.90;;
5521;SDS011;2783;48.730;8.006;2023-06-22T07:36:43;7.80;;;4.70;;
5521;SDS011;2783;48.730;8.006;2023-06-22T07:39:08;8.63;;;4.65;;
5521;SDS011;2783;48.730;8.006;2023-06-22T07:41:34;10.88;;;4.28;;
5521;SDS011;2783;48.730;8.006;2023-06-22T07:43:59;7.40;;;4.13;;
5521;SDS011;2783;48.730;8.006;2023-06-22T07:46:25;8.05;;;4.38;;
5521;SDS011;2783;48.730;8.006;2023-06-22T07:48:50;9.63;;;5.10;;
5521;SDS011;2783;48.730;8.006;2023-06-22T07:51:16;9.15;;;4.45;;
5521;SDS011;2783;48.730;8.006;2023-06-22T07:53:42;8.85;;;4.32;;
5521;SDS011;2783;48.730;8.006;2023-06-22T07:56:09;10.57;;;5.13;;
5521;SDS011;2783;48.730;8.006;2023-06-22T07:58:35;7.40;;;4.18;;
5521;SDS011;2783;48.730;8.006;2023-06-22T08:01:01;15.63;;;4.88;;
5521;SDS011;2783;48.730;8.006;2023-06-22T08:03:26;10.05;;;4.68;;
5521;SDS011;2783;48.730;8.006;2023-06-22T08:05:52;7.85;;;4.13;;
5521;SDS011;2783;48.730;8.006;2023-06-22T08:08:17;8.30;;;4.25;;
5521;SDS011;2783;48.730;8.006;2023-06-22T08:10:42;9.35;;;5.05;;
5521;SDS011;2783;48.730;8.006;2023-06-22T08:13:08;6.93;;;4.13;;
5521;SDS011;2783;48.730;8.006;2023-06-22T08:15:33;9.40;;;4.00;;
5521;SDS011;2783;48.730;8.006;2023-06-22T08:17:59;8.45;;;4.05;;
5521;SDS011;2783;48.730;8.006;2023-06-22T08:20:25;8.88;;;4.68;;
5521;SDS011;2783;48.730;8.006;2023-06-22T08:22:52;8.43;;;4.22;;
5521;SDS011;2783;48.730;8.006;2023-06-22T08:25:19;8.20;;;4.28;;
5521;SDS011;2783;48.730;8.006;2023-06-22T08:27:45;8.32;;;4.10;;
5521;SDS011;2783;48.730;8.006;2023-06-22T08:30:12;7.38;;;4.35;;
5521;SDS011;2783;48.730;8.006;2023-06-22T08:32:37;7.13;;;4.07;;
5521;SDS011;2783;48.730;8.006;2023-06-22T08:35:03;8.18;;;4.70;;
5521;SDS011;2783;48.730;8.006;2023-06-22T08:37:28;8.25;;;4.68;;
5521;SDS011;2783;48.730;8.006;2023-06-22T08:40:01;11.00;;;4.72;;
5521;SDS011;2783;48.730;8.006;2023-06-22T08:42:32;9.80;;;4.25;;
5521;SDS011;2783;48.730;8.006;2023-06-22T08:44:58;8.15;;;4.20;;
5521;SDS011;2783;48.730;8.006;2023-06-22T08:47:23;7.38;;;4.40;;
5521;SDS011;2783;48.730;8.006;2023-06-22T08:49:49;8.32;;;4.25;;
5521;SDS011;2783;48.730;8.006;2023-06-22T08:52:14;6.85;;;4.22;;
5521;SDS011;2783;48.730;8.006;2023-06-22T08:54:40;7.18;;;4.40;;
5521;SDS011;2783;48.730;8.006;2023-06-22T08:57:05;7.78;;;4.43;;
5521;SDS011;2783;48.730;8.006;2023-06-22T08:59:31;8.80;;;5.00;;
5521;SDS011;2783;48.730;8.006;2023-06-22T09:01:57;8.77;;;5.07;;
5521;SDS011;2783;48.730;8.006;2023-06-22T09:04:22;11.98;;;5.22;;
5521;SDS011;2783;48.730;8.006;2023-06-22T09:06:48;11.30;;;5.00;;
5521;SDS011;2783;48.730;8.006;2023-06-22T09:09:15;9.77;;;5.15;;
5521;SDS011;2783;48.730;8.006;2023-06-22T09:11:41;11.73;;;4.53;;
5521;SDS011;2783;48.730;8.006;2023-06-22T09:14:06;8.02;;;4.50;;
5521;SDS011;2783;48.730;8.006;2023-06-22T09:16:32;8.68;;;4.53;;
5521;SDS011;2783;48.730;8.006;2023-06-22T09:18:57;10.40;;;4.72;;
5521;SDS011;2783;48.730;8.006;2023-06-22T09:21:23;9.15;;;4.75;;
5521;SDS011;2783;48.730;8.006;2023-06-22T09:23:49;12.02;;;4.88;;
5521;SDS011;2783;48.730;8.006;2023-06-22T09:26:19;11.32;;;4.70;;
5521;SDS011;2783;48.730;8.006;2023-06-22T09:28:45;11.02;;;5.13;;
5521;SDS011;2783;48.730;8.006;2023-06-22T09:31:12;8.52;;;4.65;;
5521;SDS011;2783;48.730;8.006;2023-06-22T09:33:39;10.48;;;4.53;;
5521;SDS011;2783;48.730;8.006;2023-06-22T09:36:05;8.15;;;4.32;;
5521;SDS011;2783;48.730;8.006;2023-06-22T09:38:38;12.88;;;4.60;;
5521;SDS011;2783;48.730;8.006;2023-06-22T09:41:04;11.48;;;4.80;;
5521;SDS011;2783;48.730;8.006;2023-06-22T09:43:31;16.15;;;5.18;;
5521;SDS011;2783;48.730;8.006;2023-06-22T09:46:00;8.85;;;4.57;;
5521;SDS011;2783;48.730;8.006;2023-06-22T09:48:27;8.65;;;4.93;;
5521;SDS011;2783;48.730;8.006;2023-06-22T09:50:53;9.18;;;4.90;;
5521;SDS011;2783;48.730;8.006;2023-06-22T09:53:18;12.52;;;4.78;;
5521;SDS011;2783;48.730;8.006;2023-06-22T09:55:44;9.57;;;4.97;;
5521;SDS011;2783;48.730;8.006;2023-06-22T09:58:09;7.75;;;4.88;;
5521;SDS011;2783;48.730;8.006;2023-06-22T10:00:35;15.25;;;5.03;;
5521;SDS011;2783;48.730;8.006;2023-06-22T10:03:00;8.20;;;4.75;;
5521;SDS011;2783;48.730;8.006;2023-06-22T10:05:26;8.25;;;4.28;;
5521;SDS011;2783;48.730;8.006;2023-06-22T10:07:51;8.50;;;4.70;;
5521;SDS011;2783;48.730;8.006;2023-06-22T10:10:17;9.30;;;4.65;;
5521;SDS011;2783;48.730;8.006;2023-06-22T10:12:54;10.55;;;4.55;;
5521;SDS011;2783;48.730;8.006;2023-06-22T10:15:21;9.13;;;4.43;;
5521;SDS011;2783;48.730;8.006;2023-06-22T10:17:47;8.60;;;4.50;;
5521;SDS011;2783;48.730;8.006;2023-06-22T10:20:13;9.48;;;4.53;;
5521;SDS011;2783;48.730;8.006;2023-06-22T10:22:42;8.77;;;4.82;;
5521;SDS011;2783;48.730;8.006;2023-06-22T10:25:09;7.07;;;4.20;;
5521;SDS011;2783;48.730;8.006;2023-06-22T10:27:35;12.05;;;5.18;;
5521;SDS011;2783;48.730;8.006;2023-06-22T10:30:01;8.95;;;4.18;;
5521;SDS011;2783;48.730;8.006;2023-06-22T10:32:26;10.73;;;4.40;;
5521;SDS011;2783;48.730;8.006;2023-06-22T10:34:53;8.20;;;4.55;;
5521;SDS011;2783;48.730;8.006;2023-06-22T10:37:19;9.05;;;4.95;;
5521;SDS011;2783;48.730;8.006;2023-06-22T10:39:44;8.68;;;5.20;;
5521;SDS011;2783;48.730;8.006;2023-06-22T10:42:10;12.35;;;5.10;;
5521;SDS011;2783;48.730;8.006;2023-06-22T10:44:35;11.63;;;4.93;;
5521;SDS011;2783;48.730;8.006;2023-06-22T10:47:00;13.63;;;5.40;;
5521;SDS011;2783;48.730;8.006;2023-06-22T10:49:26;12.43;;;4.47;;
5521;SDS011;2783;48.730;8.006;2023-06-22T10:51:51;9.77;;;5.05;;
5521;SDS011;2783;48.730;8.006;2023-06-22T10:54:16;8.88;;;4.88;;
5521;SDS011;2783;48.730;8.006;2023-06-22T10:56:44;9.93;;;6.03;;
5521;SDS011;2783;48.730;8.006;2023-06-22T10:59:09;8.85;;;5.40;;
5521;SDS011;2783;48.730;8.006;2023-06-22T11:01:35;10.32;;;5.70;;
5521;SDS011;2783;48.730;8.006;2023-06-22T11:04:01;9.95;;;4.70;;
5521;SDS011;2783;48.730;8.006;2023-06-22T11:06:27;8.65;;;4.53;;
5521;SDS011;2783;48.730;8.006;2023-06-22T11:08:53;9.98;;;4.95;;
5521;SDS011;2783;48.730;8.006;2023-06-22T11:11:18;7.50;;;4.45;;
5521;SDS011;2783;48.730;8.006;2023-06-22T11:13:43;8.48;;;4.97;;
5521;SDS011;2783;48.730;8.006;2023-06-22T11:16:09;11.50;;;5.47;;
5521;SDS011;2783;48.730;8.006;2023-06-22T11:18:35;9.23;;;4.95;;
5521;SDS011;2783;48.730;8.006;2023-06-22T11:21:01;10.55;;;4.80;;
5521;SDS011;2783;48.730;8.006;2023-06-22T11:23:26;10.95;;;4.85;;
5521;SDS011;2783;48.730;8.006;2023-06-22T11:25:53;12.68;;;4.93;;
5521;SDS011;2783;48.730;8.006;2023-06-22T11:28:18;7.50;;;4.85;;
5521;SDS011;2783;48.730;8.006;2023-06-22T11:30:44;9.50;;;4.65;;
5521;SDS011;2783;48.730;8.006;2023-06-22T11:33:09;10.23;;;5.07;;
5521;SDS011;2783;48.730;8.006;2023-06-22T11:35:37;9.10;;;5.00;;
5521;SDS011;2783;48.730;8.006;2023-06-22T11:38:03;10.85;;;5.03;;
5521;SDS011;2783;48.730;8.006;2023-06-22T11:40:29;8.90;;;4.97;;
5521;SDS011;2783;48.730;8.006;2023-06-22T11:42:55;12.13;;;4.90;;
5521;SDS011;2783;48.730;8.006;2023-06-22T11:45:20;8.07;;;5.00;;
5521;SDS011;2783;48.730;8.006;2023-06-22T11:47:46;9.15;;;5.03;;
5521;SDS011;2783;48.730;8.006;2023-06-22T11:50:12;11.15;;;4.82;;
5521;SDS011;2783;48.730;8.006;2023-06-22T11:52:37;9.45;;;4.85;;
5521;SDS011;2783;48.730;8.006;2023-06-22T11:55:03;8.45;;;4.70;;
5521;SDS011;2783;48.730;8.006;2023-06-22T11:57:32;8.18;;;4.60;;
5521;SDS011;2783;48.730;8.006;2023-06-22T11:59:58;12.13;;;5.05;;
5521;SDS011;2783;48.730;8.006;2023-06-22T12:02:24;11.30;;;5.95;;
5521;SDS011;2783;48.730;8.006;2023-06-22T12:04:49;9.57;;;5.50;;
5521;SDS011;2783;48.730;8.006;2023-06-22T12:07:17;9.20;;;5.05;;
5521;SDS011;2783;48.730;8.006;2023-06-22T12:09:43;9.80;;;4.72;;
5521;SDS011;2783;48.730;8.006;2023-06-22T12:12:09;8.38;;;5.05;;
5521;SDS011;2783;48.730;8.006;2023-06-22T12:14:34;9.52;;;4.70;;
5521;SDS011;2783;48.730;8.006;2023-06-22T12:17:00;8.02;;;4.78;;
5521;SDS011;2783;48.730;8.006;2023-06-22T12:19:25;8.40;;;4.63;;
5521;SDS011;2783;48.730;8.006;2023-06-22T12:21:50;10.18;;;4.63;;
5521;SDS011;2783;48.730;8.006;2023-06-22T12:24:16;8.82;;;4.90;;
5521;SDS011;2783;48.730;8.006;2023-06-22T12:26:41;11.32;;;5.50;;
5521;SDS011;2783;48.730;8.006;2023-06-22T12:29:07;8.93;;;5.25;;
5521;SDS011;2783;48.730;8.006;2023-06-22T12:31:33;8.00;;;5.15;;
5521;SDS011;2783;48.730;8.006;2023-06-22T12:33:58;8.65;;;4.90;;
5521;SDS011;2783;48.730;8.006;2023-06-22T12:36:23;11.57;;;5.20;;
5521;SDS011;2783;48.730;8.006;2023-06-22T12:38:49;7.53;;;4.50;;
5521;SDS011;2783;48.730;8.006;2023-06-22T12:41:15;10.02;;;5.03;;
5521;SDS011;2783;48.730;8.006;2023-06-22T12:43:40;8.38;;;5.15;;
5521;SDS011;2783;48.730;8.006;2023-06-22T12:46:05;8.35;;;4.50;;
5521;SDS011;2783;48.730;8.006;2023-06-22T12:48:31;9.18;;;4.72;;
5521;SDS011;2783;48.730;8.006;2023-06-22T12:50:56;9.73;;;4.50;;
5521;SDS011;2783;48.730;8.006;2023-06-22T12:53:22;10.30;;;5.40;;
5521;SDS011;2783;48.730;8.006;2023-06-22T12:55:48;9.23;;;5.03;;
5521;SDS011;2783;48.730;8.006;2023-06-22T12:58:14;9.57;;;4.90;;
5521;SDS011;2783;48.730;8.006;2023-06-22T13:00:39;7.90;;;4.97;;
5521;SDS011;2783;48.730;8.006;2023-06-22T13:03:05;8.52;;;4.75;;
5521;SDS011;2783;48.730;8.006;2023-06-22T13:05:30;10.00;;;5.15;;
5521;SDS011;2783;48.730;8.006;2023-06-22T13:07:55;11.48;;;4.75;;
5521;SDS011;2783;48.730;8.006;2023-06-22T13:10:21;10.55;;;5.25;;
5521;SDS011;2783;48.730;8.006;2023-06-22T13:12:46;8.65;;;4.47;;
5521;SDS011;2783;48.730;8.006;2023-06-22T13:15:12;10.23;;;5.13;;
5521;SDS011;2783;48.730;8.006;2023-06-22T13:17:37;7.32;;;4.28;;
5521;SDS011;2783;48.730;8.006;2023-06-22T13:20:03;10.13;;;4.80;;
5521;SDS011;2783;48.730;8.006;2023-06-22T13:22:33;10.40;;;4.53;;
5521;SDS011;2783;48.730;8.006;2023-06-22T13:25:04;9.45;;;4.75;;
5521;SDS011;2783;48.730;8.006;2023-06-22T13:27:31;7.90;;;4.55;;
5521;SDS011;2783;48.730;8.006;2023-06-22T13:29:56;8.38;;;4.40;;
5521;SDS011;2783;48.730;8.006;2023-06-22T13:32:21;8.68;;;4.32;;
5521;SDS011;2783;48.730;8.006;2023-06-22T13:34:47;13.70;;;4.65;;
5521;SDS011;2783;48.730;8.006;2023-06-22T13:37:12;10.55;;;4.57;;
5521;SDS011;2783;48.730;8.006;2023-06-22T13:39:38;8.05;;;4.18;;
5521;SDS011;2783;48.730;8.006;2023-06-22T13:42:03;8.82;;;4.10;;
5521;SDS011;2783;48.730;8.006;2023-06-22T13:44:29;6.45;;;3.70;;
5521;SDS011;2783;48.730;8.006;2023-06-22T13:46:55;9.85;;;4.68;;
5521;SDS011;2783;48.730;8.006;2023-06-22T13:49:20;10.85;;;5.88;;
5521;SDS011;2783;48.730;8.006;2023-06-22T13:51:46;10.73;;;4.38;;
5521;SDS011;2783;48.730;8.006;2023-06-22T13:54:13;15.70;;;5.88;;
5521;SDS011;2783;48.730;8.006;2023-06-22T13:56:38;9.43;;;4.00;;
5521;SDS011;2783;48.730;8.006;2023-06-22T13:59:04;10.32;;;3.70;;
5521;SDS011;2783;48.730;8.006;2023-06-22T14:01:29;12.80;;;3.67;;
5521;SDS011;2783;48.730;8.006;2023-06-22T14:03:55;7.78;;;3.50;;
5521;SDS011;2783;48.730;8.006;2023-06-22T14:06:20;7.53;;;2.45;;
5521;SDS011;2783;48.730;8.006;2023-06-22T14:08:45;8.13;;;2.80;;
5521;SDS011;2783;48.730;8.006;2023-06-22T14:11:11;5.20;;;2.30;;
5521;SDS011;2783;48.730;8.006;2023-06-22T14:13:36;9.70;;;2.70;;
5521;SDS011;2783;48.730;8.006;2023-06-22T14:16:02;9.07;;;3.30;;
5521;SDS011;2783;48.730;8.006;2023-06-22T14:18:28;7.22;;;2.80;;
5521;SDS011;2783;48.730;8.006;2023-06-22T14:20:54;7.25;;;3.42;;
5521;SDS011;2783;48.730;8.006;2023-06-22T14:23:19;8.75;;;3.20;;
5521;SDS011;2783;48.730;8.006;2023-06-22T14:25:45;6.00;;;3.30;;
5521;SDS011;2783;48.730;8.006;2023-06-22T14:28:10;8.15;;;3.53;;
5521;SDS011;2783;48.730;8.006;2023-06-22T14:30:35;8.10;;;4.50;;
5521;SDS011;2783;48.730;8.006;2023-06-22T14:33:01;11.63;;;3.85;;
5521;SDS011;2783;48.730;8.006;2023-06-22T14:35:26;9.50;;;4.03;;
5521;SDS011;2783;48.730;8.006;2023-06-22T14:37:52;9.30;;;3.80;;
5521;SDS011;2783;48.730;8.006;2023-06-22T14:40:17;8.48;;;4.15;;
5521;SDS011;2783;48.730;8.006;2023-06-22T14:42:42;9.32;;;3.80;;
5521;SDS011;2783;48.730;8.006;2023-06-22T14:45:08;9.93;;;4.53;;
5521;SDS011;2783;48.730;8.006;2023-06-22T14:47:33;8.30;;;3.65;;
5521;SDS011;2783;48.730;8.006;2023-06-22T14:49:59;8.98;;;4.30;;
5521;SDS011;2783;48.730;8.006;2023-06-22T14:52:25;10.68;;;4.03;;
5521;SDS011;2783;48.730;8.006;2023-06-22T14:54:51;6.90;;;4.18;;
5521;SDS011;2783;48.730;8.006;2023-06-22T14:57:17;7.95;;;3.75;;
5521;SDS011;2783;48.730;8.006;2023-06-22T14:59:45;10.77;;;3.95;;
5521;SDS011;2783;48.730;8.006;2023-06-22T15:02:11;7.55;;;4.25;;
5521;SDS011;2783;48.730;8.006;2023-06-22T15:04:36;11.40;;;5.20;;
5521;SDS011;2783;48.730;8.006;2023-06-22T15:07:02;10.68;;;5.30;;
5521;SDS011;2783;48.730;8.006;2023-06-22T15:09:27;12.25;;;5.32;;
5521;SDS011;2783;48.730;8.006;2023-06-22T15:11:53;9.52;;;5.15;;
5521;SDS011;2783;48.730;8.006;2023-06-22T15:14:18;11.10;;;4.78;;